createdAt,value
2022-09-23T00:00:28.244Z,94.32
2022-09-23T00:05:21.037Z,92.95
2022-09-23T00:10:11.462Z,92.86
2022-09-23T00:15:03.566Z,93.66
2022-09-23T00:19:54.710Z,92.22
2022-09-23T00:24:47.416Z,92.19
2022-09-23T00:29:37.470Z,92.33
2022-09-23T00:34:27.516Z,92.62
2022-09-23T00:39:17.643Z,92.94
2022-09-23T00:44:22.441Z,93.77
2022-09-23T00:49:16.902Z,94.19
2022-09-23T00:54:08.257Z,94.61
2022-09-23T00:58:58.238Z,93.84
2022-09-23T01:03:48.920Z,94.26
2022-09-23T01:08:42.033Z,94.77
2022-09-23T01:13:34.929Z,93.92
2022-09-23T01:18:32.508Z,93.69
2022-09-23T01:23:34.318Z,94.97
2022-09-23T01:28:33.954Z,95.26
2022-09-23T01:33:32.235Z,95.40
2022-09-23T01:38:27.916Z,95.69
2022-09-23T01:43:20.322Z,95.48
2022-09-23T01:48:14.105Z,94.87
2022-09-23T01:53:09.277Z,94.63
2022-09-23T01:58:02.903Z,95.61
2022-09-23T02:02:56.094Z,95.19
2022-09-23T02:07:49.947Z,94.71
2022-09-23T02:12:43.969Z,95.01
2022-09-23T02:17:40.225Z,95.29
2022-09-23T02:22:31.448Z,95.10
2022-09-23T02:27:26.081Z,95.47
2022-09-23T02:32:23.206Z,96.09
2022-09-23T02:37:19.988Z,95.80
2022-09-23T02:42:13.123Z,95.25
2022-09-23T02:47:04.094Z,95.13
2022-09-23T02:51:57.526Z,95.07
2022-09-23T02:56:49.721Z,95.39
2022-09-23T03:01:47.031Z,95.19
2022-09-23T03:06:42.819Z,95.37
2022-09-23T03:11:38.851Z,95.01
2022-09-23T03:16:33.285Z,94.96
2022-09-23T03:21:27.502Z,94.90
2022-09-23T03:26:20.990Z,95.04
2022-09-23T03:31:14.829Z,94.81
2022-09-23T03:36:19.257Z,94.61
2022-09-23T03:41:12.433Z,94.13
2022-09-23T03:46:03.503Z,94.39
2022-09-23T03:50:55.965Z,94.70
2022-09-23T03:55:45.912Z,94.73
2022-09-23T04:00:36.349Z,94.88
2022-09-23T04:05:26.252Z,94.92
2022-09-23T04:10:18.720Z,95.48
2022-09-23T04:15:09.977Z,95.37
2022-09-23T04:20:00.111Z,95.49
2022-09-23T04:24:53.864Z,96.07
2022-09-23T04:29:46.563Z,96.70
2022-09-23T04:34:36.427Z,96.57
2022-09-23T04:39:26.805Z,96.40
2022-09-23T04:44:19.074Z,96.94
2022-09-23T04:49:13.293Z,96.90
2022-09-23T04:54:06.740Z,96.50
2022-09-23T04:58:58.494Z,97.08
2022-09-23T05:03:51.352Z,97.10
2022-09-23T05:08:44.304Z,97.65
2022-09-23T05:13:34.832Z,97.29
2022-09-23T05:18:24.899Z,96.20
2022-09-23T05:23:15.120Z,97.18
2022-09-23T05:28:07.767Z,97.85
2022-09-23T05:32:57.803Z,98.19
2022-09-23T05:37:49.456Z,97.69
2022-09-23T05:42:40.507Z,98.59
2022-09-23T05:47:32.983Z,98.96
2022-09-23T05:52:23.252Z,97.85
2022-09-23T05:57:13.652Z,97.56
2022-09-23T06:02:08.724Z,96.85
2022-09-23T06:07:03.668Z,97.05
2022-09-23T06:11:53.990Z,97.63
2022-09-23T06:16:44.430Z,97.29
2022-09-23T06:21:34.696Z,97.41
2022-09-23T06:26:27.706Z,97.94
2022-09-23T06:31:21.248Z,97.99
2022-09-23T06:36:22.085Z,97.40
2022-09-23T06:41:14.909Z,96.95
2022-09-23T06:46:08.815Z,96.60
2022-09-23T06:51:02.750Z,96.61
2022-09-23T06:56:01.646Z,96.52
2022-09-23T07:00:53.576Z,96.75
2022-09-23T07:05:46.325Z,96.18
2022-09-23T07:10:39.665Z,97.17
2022-09-23T07:15:30.010Z,96.39
2022-09-23T07:20:24.037Z,97.33
2022-09-23T07:25:17.372Z,96.84
2022-09-23T07:30:16.194Z,97.01
2022-09-23T07:35:10.978Z,96.54
2022-09-23T07:40:00.759Z,95.25
2022-09-23T07:44:53.742Z,95.00
2022-09-23T07:49:43.885Z,94.88
2022-09-23T07:54:34.084Z,95.27
2022-09-23T07:59:27.291Z,94.42
2022-09-23T08:04:22.051Z,94.38
2022-09-23T08:09:12.568Z,95.07
2022-09-23T08:14:02.789Z,94.55
2022-09-23T08:18:55.095Z,94.74
2022-09-23T08:23:47.560Z,93.63
2022-09-23T08:28:38.081Z,93.75
2022-09-23T08:33:28.182Z,92.79
2022-09-23T08:38:18.277Z,93.67
2022-09-23T08:43:18.431Z,92.43
2022-09-23T08:48:13.942Z,91.14
2022-09-23T08:53:07.951Z,90.74
2022-09-23T08:58:24.947Z,90.01
2022-09-23T09:03:23.962Z,89.27
2022-09-23T09:08:14.599Z,89.49
2022-09-23T09:13:07.646Z,88.77
2022-09-23T09:18:02.925Z,88.79
2022-09-23T09:22:58.039Z,88.23
2022-09-23T09:27:48.794Z,88.01
2022-09-23T09:32:48.796Z,86.00
2022-09-23T09:37:42.835Z,85.15
2022-09-23T09:42:43.541Z,87.57
2022-09-23T09:47:51.838Z,84.14
2022-09-23T09:52:43.469Z,83.68
2022-09-23T09:57:42.829Z,84.45
2022-09-23T10:02:44.112Z,84.35
2022-09-23T10:07:37.330Z,83.93
2022-09-23T10:12:28.850Z,84.37
2022-09-23T10:17:25.091Z,83.39
2022-09-23T10:22:29.848Z,82.87
2022-09-23T10:27:31.724Z,83.18
2022-09-23T10:32:29.904Z,83.14
2022-09-23T10:37:30.524Z,81.06
2022-09-23T10:42:40.789Z,80.34
2022-09-23T10:47:43.908Z,80.51
2022-09-23T10:52:47.658Z,80.64
2022-09-23T10:57:54.359Z,80.27
2022-09-23T11:03:15.516Z,80.72
2022-09-23T11:08:29.909Z,79.11
2022-09-23T11:13:33.654Z,78.31
2022-09-23T11:18:50.741Z,78.27
2022-09-23T11:24:00.587Z,77.66
2022-09-23T11:29:14.438Z,78.43
2022-09-23T11:34:30.407Z,78.60
2022-09-23T11:39:26.518Z,78.43
2022-09-23T11:44:23.618Z,78.94
2022-09-23T11:49:22.163Z,78.61
2022-09-23T11:54:26.361Z,79.69
2022-09-23T11:59:34.635Z,80.32
2022-09-23T12:04:47.472Z,81.10
2022-09-23T12:10:01.625Z,81.73
2022-09-23T12:15:04.856Z,81.88
2022-09-23T12:20:31.437Z,82.23
2022-09-23T12:25:40.342Z,82.06
2022-09-23T12:30:35.069Z,82.88
2022-09-23T12:35:35.808Z,82.52
2022-09-23T12:40:36.262Z,82.55
2022-09-23T12:45:41.812Z,82.55
2022-09-23T12:50:55.837Z,83.57
2022-09-23T12:55:52.197Z,84.96
2022-09-23T13:01:06.600Z,86.32
2022-09-23T13:06:16.223Z,86.85
2022-09-23T13:11:12.973Z,87.13
2022-09-23T13:16:16.128Z,88.01
2022-09-23T13:21:20.509Z,88.14
2022-09-23T13:26:14.423Z,89.08
2022-09-23T13:31:08.752Z,89.40
2022-09-23T13:36:07.152Z,89.72
2022-09-23T13:41:05.626Z,89.82
2022-09-23T13:45:58.490Z,89.85
2022-09-23T13:50:53.759Z,89.98
2022-09-23T13:55:51.632Z,90.06
2022-09-23T14:00:48.884Z,90.94
2022-09-23T14:05:43.382Z,92.55
2022-09-23T14:10:34.448Z,93.19
2022-09-23T14:15:25.806Z,93.60
2022-09-23T14:20:20.845Z,93.88
2022-09-23T14:25:17.566Z,94.14
2022-09-23T14:30:20.713Z,94.70
2022-09-23T14:35:27.324Z,94.56
2022-09-23T14:40:28.501Z,94.14
2022-09-23T14:45:23.201Z,94.52
2022-09-23T14:50:37.066Z,95.14
2022-09-23T14:55:32.025Z,96.42
2022-09-23T15:00:28.093Z,97.42
2022-09-23T15:05:26.868Z,97.85
2022-09-23T15:10:23.780Z,98.53
2022-09-23T15:15:18.383Z,98.53
2022-09-23T15:20:19.723Z,100.00
2022-09-23T15:25:21.338Z,100.00
2022-09-23T15:30:18.332Z,100.00
2022-09-23T15:35:09.893Z,100.00
2022-09-23T15:40:03.685Z,100.00
2022-09-23T15:45:08.451Z,100.00
2022-09-23T15:50:00.054Z,100.00
2022-09-23T15:54:50.361Z,100.00
2022-09-23T15:59:41.147Z,100.00
2022-09-23T16:04:40.022Z,100.00
2022-09-23T16:09:31.908Z,100.00
2022-09-23T16:14:23.689Z,100.00
2022-09-23T16:19:16.704Z,100.00
2022-09-23T16:24:16.375Z,100.00
2022-09-23T16:29:07.119Z,100.00
2022-09-23T16:34:08.932Z,100.00
2022-09-23T16:39:03.030Z,100.00
2022-09-23T16:43:56.627Z,100.00
2022-09-23T16:48:52.888Z,100.00
2022-09-23T16:53:46.050Z,100.00
2022-09-23T16:58:37.460Z,100.00
2022-09-23T17:03:43.742Z,100.00
2022-09-23T17:08:35.128Z,100.00
2022-09-23T17:13:27.797Z,100.00
2022-09-23T17:18:19.654Z,100.00
2022-09-23T17:23:15.037Z,100.00
2022-09-23T17:28:06.496Z,100.00
2022-09-23T17:33:04.113Z,100.00
2022-09-23T17:37:57.648Z,100.00
2022-09-23T17:42:53.854Z,100.00
2022-09-23T17:47:52.474Z,100.00
2022-09-23T17:52:45.715Z,100.00
2022-09-23T17:57:36.310Z,100.00
2022-09-23T18:02:29.809Z,100.00
2022-09-23T18:07:20.526Z,100.00
2022-09-23T18:12:12.119Z,100.00
2022-09-23T18:17:03.073Z,100.00
2022-09-23T18:22:01.749Z,100.00
2022-09-23T18:26:53.668Z,100.00
2022-09-23T18:31:44.712Z,100.00
2022-09-23T18:36:35.739Z,100.00
2022-09-23T18:41:30.240Z,100.00
2022-09-23T18:46:23.001Z,100.00
2022-09-23T18:51:14.734Z,100.00
2022-09-23T18:56:08.931Z,100.00
2022-09-23T19:01:06.487Z,100.00
2022-09-23T19:05:57.054Z,100.00
2022-09-23T19:10:46.890Z,100.00
2022-09-23T19:15:36.532Z,100.00
2022-09-23T19:20:30.553Z,100.00
2022-09-23T19:25:21.651Z,100.00
2022-09-23T19:30:13.792Z,100.00
2022-09-23T19:35:04.832Z,100.00
2022-09-23T19:39:58.227Z,100.00
2022-09-23T19:44:48.525Z,100.00
2022-09-23T19:49:38.712Z,100.00
2022-09-23T19:54:29.324Z,100.00
2022-09-23T19:59:22.629Z,100.00
2022-09-23T20:04:13.310Z,100.00
2022-09-23T20:09:04.164Z,100.00
2022-09-23T20:14:00.087Z,100.00
2022-09-23T20:18:55.839Z,100.00
2022-09-23T20:23:46.730Z,100.00
2022-09-23T20:28:37.025Z,100.00
2022-09-23T20:33:27.384Z,100.00
2022-09-23T20:38:21.628Z,100.00
2022-09-23T20:43:16.214Z,100.00
2022-09-23T20:48:11.363Z,100.00
2022-09-23T20:53:02.090Z,100.00
2022-09-23T20:57:55.655Z,100.00
2022-09-23T21:02:46.786Z,100.00
2022-09-23T21:07:37.722Z,100.00
2022-09-23T21:12:28.356Z,100.00
2022-09-23T21:17:21.836Z,100.00
2022-09-23T21:22:12.704Z,100.00
2022-09-23T21:27:03.414Z,100.00
2022-09-23T21:31:53.851Z,100.00
2022-09-23T21:36:48.329Z,100.00
2022-09-23T21:41:39.422Z,100.00
2022-09-23T21:46:30.706Z,100.00
2022-09-23T21:51:25.238Z,100.00
2022-09-23T21:56:21.161Z,100.00
2022-09-23T22:01:14.160Z,100.00
2022-09-23T22:06:09.820Z,100.00
2022-09-23T22:11:00.279Z,100.00
2022-09-23T22:15:53.558Z,100.00
2022-09-23T22:20:44.399Z,100.00
2022-09-23T22:25:35.177Z,100.00
2022-09-23T22:30:38.116Z,100.00
2022-09-23T22:35:31.893Z,100.00
2022-09-23T22:40:25.426Z,100.00
2022-09-23T22:45:16.159Z,100.00
2022-09-23T22:50:07.104Z,100.00
2022-09-23T22:55:00.517Z,100.00
2022-09-23T22:59:51.051Z,100.00
2022-09-23T23:04:41.985Z,100.00
2022-09-23T23:09:32.422Z,100.00
2022-09-23T23:14:26.579Z,100.00
2022-09-23T23:19:19.447Z,100.00
2022-09-23T23:24:10.483Z,100.00
2022-09-23T23:29:01.794Z,100.00
2022-09-23T23:33:55.347Z,100.00
2022-09-23T23:38:48.522Z,100.00
2022-09-23T23:43:39.589Z,100.00
2022-09-23T23:48:32.097Z,100.00
2022-09-23T23:53:25.441Z,100.00
2022-09-23T23:58:17.436Z,100.00
